createdAt,value
2022-08-17T00:03:23.817Z,16.31
2022-08-17T00:08:23.808Z,16.31
2022-08-17T00:13:23.959Z,16.06
2022-08-17T00:18:53.711Z,15.93
2022-08-17T00:23:23.810Z,15.87
2022-08-17T00:28:23.802Z,15.75
2022-08-17T00:33:23.916Z,15.68
2022-08-17T00:38:23.787Z,15.75
2022-08-17T00:43:23.786Z,15.68
2022-08-17T00:48:27.320Z,15.56
2022-08-17T00:53:23.758Z,15.68
2022-08-17T00:58:28.801Z,15.5
2022-08-17T01:03:23.759Z,15.31
2022-08-17T01:08:23.752Z,15.18
2022-08-17T01:13:23.757Z,15.25
2022-08-17T01:18:23.723Z,15.25
2022-08-17T01:23:23.738Z,15.37
2022-08-17T01:28:33.696Z,15.18
2022-08-17T01:33:23.713Z,15.06
2022-08-17T01:38:26.439Z,15
2022-08-17T01:43:23.698Z,15.12
2022-08-17T01:48:23.690Z,15.25
2022-08-17T02:08:37.428Z,14.81
2022-08-17T02:13:23.660Z,14.81
2022-08-17T02:18:23.655Z,14.87
2022-08-17T02:23:23.680Z,14.75
2022-08-17T02:33:23.636Z,14.56
2022-08-17T02:53:23.605Z,14.5
2022-08-17T02:58:27.317Z,14.43
2022-08-17T03:03:23.612Z,14.62
2022-08-17T03:08:23.605Z,14.56
2022-08-17T03:13:23.614Z,14.25
2022-08-17T03:18:25.178Z,14.18
2022-08-17T03:23:23.908Z,14.06
2022-08-17T03:28:23.604Z,14.31
2022-08-17T03:33:23.567Z,14.37
2022-08-17T03:38:23.565Z,14.12
2022-08-17T03:43:23.574Z,14.12
2022-08-17T03:48:23.549Z,14.43
2022-08-17T03:53:23.547Z,14.43
2022-08-17T03:58:23.543Z,14.5
2022-08-17T04:03:23.538Z,14.5
2022-08-17T04:08:23.546Z,14.56
2022-08-17T04:13:24.162Z,14.56
2022-08-17T04:18:23.531Z,14.56
2022-08-17T04:23:23.502Z,14.68
2022-08-17T04:28:23.489Z,14.75
2022-08-17T04:33:23.498Z,15
2022-08-17T04:38:23.508Z,15.31
2022-08-17T04:43:23.475Z,15.5
2022-08-17T04:48:23.477Z,15.75
2022-08-17T04:53:23.480Z,16
2022-08-17T04:58:23.460Z,16.18
2022-08-17T05:03:23.495Z,16.31
2022-08-17T05:08:23.453Z,16.56
2022-08-17T05:13:23.456Z,16.68
2022-08-17T05:18:24.630Z,16.93
2022-08-17T05:23:23.479Z,21.43
2022-08-17T05:28:24.272Z,22.75
2022-08-17T05:33:23.452Z,22.81
2022-08-17T05:38:23.411Z,23.81
2022-08-17T05:43:23.408Z,23.81
2022-08-17T05:48:35.235Z,24.12
2022-08-17T05:53:23.401Z,25.68
2022-08-17T05:58:23.379Z,25.62
2022-08-17T06:03:23.379Z,24
2022-08-17T06:08:23.378Z,25.18
2022-08-17T06:13:23.379Z,25.12
2022-08-17T06:18:23.360Z,26.56
2022-08-17T06:23:23.348Z,24.62
2022-08-17T06:28:23.351Z,26.81
2022-08-17T06:33:23.353Z,26.06
2022-08-17T06:38:37.346Z,26
2022-08-17T06:43:23.338Z,27.12
2022-08-17T06:48:23.323Z,25.75
2022-08-17T06:53:23.319Z,26.5
2022-08-17T06:58:23.301Z,27
2022-08-17T07:03:23.303Z,27.62
2022-08-17T07:08:26.483Z,27.25
2022-08-17T07:13:23.319Z,27.37
2022-08-17T07:18:23.268Z,27.93
2022-08-17T07:23:23.257Z,28.25
2022-08-17T07:28:23.280Z,28.56
2022-08-17T07:33:23.265Z,28.56
2022-08-17T07:38:24.433Z,28.18
2022-08-17T07:43:23.726Z,24.62
2022-08-17T07:48:23.243Z,24.87
2022-08-17T07:53:23.242Z,24.62
2022-08-17T07:58:23.251Z,24.87
2022-08-17T08:03:23.638Z,24.43
2022-08-17T08:08:23.218Z,24.68
2022-08-17T08:13:23.213Z,24.87
2022-08-17T08:18:38.885Z,25.06
2022-08-17T08:23:23.187Z,26
2022-08-17T08:28:23.203Z,26
2022-08-17T08:33:23.175Z,25.56
2022-08-17T08:38:23.164Z,26.62
2022-08-17T08:43:23.180Z,25.37
2022-08-17T08:48:53.510Z,26.18
2022-08-17T08:53:23.147Z,26.06
2022-08-17T08:58:30.754Z,26.37
2022-08-17T09:03:36.654Z,26.25
2022-08-17T09:08:23.140Z,26.25
2022-08-17T09:13:23.150Z,26.43
2022-08-17T09:18:59.476Z,27.06
2022-08-17T09:23:23.125Z,26.87
2022-08-17T09:28:23.108Z,27.5
2022-08-17T09:33:23.109Z,27.62
2022-08-17T09:38:23.095Z,27.31
2022-08-17T09:43:23.088Z,27.93
2022-08-17T09:48:23.076Z,28.31
2022-08-17T09:53:23.084Z,28.18
2022-08-17T09:58:23.055Z,28.18
2022-08-17T10:03:23.048Z,28.06
2022-08-17T10:08:23.052Z,28.12
2022-08-17T10:13:23.036Z,27.81
2022-08-17T10:18:23.046Z,29.37
2022-08-17T10:23:23.020Z,28.87
2022-08-17T10:28:27.350Z,29.18
2022-08-17T10:33:23.027Z,28.87
2022-08-17T10:38:24.539Z,28.62
2022-08-17T10:43:22.994Z,27.68
2022-08-17T10:48:22.988Z,28.75
2022-08-17T10:53:23.017Z,29.68
2022-08-17T10:58:22.982Z,28.12
2022-08-17T11:03:22.981Z,28.25
2022-08-17T11:08:22.975Z,29.56
2022-08-17T11:13:22.987Z,28.81
2022-08-17T11:18:22.965Z,29
2022-08-17T11:23:22.964Z,29.62
2022-08-17T11:28:22.941Z,29.06
2022-08-17T11:33:22.940Z,29.62
2022-08-17T11:38:22.947Z,30.12
2022-08-17T11:43:25.535Z,29.87
2022-08-17T11:48:28.090Z,30.68
2022-08-17T11:53:22.941Z,30.93
2022-08-17T11:58:22.916Z,30.56
2022-08-17T12:03:22.982Z,30.93
2022-08-17T12:08:22.908Z,30.93
2022-08-17T12:13:22.918Z,30.87
2022-08-17T12:18:22.892Z,31.31
2022-08-17T12:23:22.894Z,30.31
2022-08-17T12:28:23.244Z,30.56
2022-08-17T12:33:25.193Z,31.31
2022-08-17T12:38:27.011Z,30.93
2022-08-17T12:43:22.863Z,30.93
2022-08-17T12:48:22.884Z,30.87
2022-08-17T12:53:22.844Z,30.81
2022-08-17T12:58:22.849Z,30.93
2022-08-17T13:03:22.831Z,30.81
2022-08-17T13:08:22.849Z,31
2022-08-17T13:13:22.831Z,31.06
2022-08-17T13:18:22.823Z,31.18
2022-08-17T13:23:22.810Z,31
2022-08-17T13:28:29.914Z,31.31
2022-08-17T13:33:22.807Z,31
2022-08-17T13:43:22.795Z,31.06
2022-08-17T13:48:22.777Z,30.68
2022-08-17T13:53:22.805Z,31.18
2022-08-17T14:03:22.765Z,30.81
2022-08-17T14:08:22.762Z,31.25
2022-08-17T14:18:30.536Z,30.68
2022-08-17T14:23:22.743Z,30.93
2022-08-17T14:38:22.716Z,31.56
2022-08-17T14:43:22.707Z,31.18
2022-08-17T14:53:22.710Z,30.5
2022-08-17T14:58:22.704Z,30.31
2022-08-17T15:03:22.714Z,30.43
2022-08-17T15:08:22.690Z,30.62
2022-08-17T15:13:22.693Z,30.75
2022-08-17T15:18:22.679Z,30.5
2022-08-17T15:23:22.661Z,30.18
2022-08-17T15:28:22.670Z,30.18
2022-08-17T15:33:22.674Z,30.12
2022-08-17T15:38:22.654Z,30.12
2022-08-17T15:43:27.218Z,30.12
2022-08-17T15:48:22.652Z,30.06
2022-08-17T15:53:22.625Z,30
2022-08-17T15:58:30.040Z,30.12
2022-08-17T16:03:44.356Z,30.06
2022-08-17T16:13:22.608Z,29.81
2022-08-17T16:18:22.620Z,29.75
2022-08-17T16:28:22.599Z,29.75
2022-08-17T16:38:22.581Z,29.5
2022-08-17T16:43:22.563Z,29.43
2022-08-17T16:48:22.567Z,29.43
2022-08-17T16:53:22.553Z,29.31
2022-08-17T17:08:22.533Z,29.12
2022-08-17T17:13:22.525Z,29
2022-08-17T17:33:22.510Z,27.93
2022-08-17T17:38:22.512Z,27.56
2022-08-17T17:43:38.118Z,27.25
2022-08-17T17:48:22.506Z,27
2022-08-17T17:53:22.637Z,26.68
2022-08-17T17:58:22.459Z,26.5
2022-08-17T18:03:22.469Z,26.06
2022-08-17T18:08:31.907Z,25.81
2022-08-17T18:13:22.442Z,25.62
2022-08-17T18:18:22.451Z,25.75
2022-08-17T18:23:27.252Z,25.43
2022-08-17T18:28:22.435Z,25.5
2022-08-17T18:33:23.102Z,25.68
2022-08-17T18:38:22.431Z,25.43
2022-08-17T18:43:22.410Z,25.56
2022-08-17T18:48:22.408Z,25.56
2022-08-17T18:53:26.447Z,25.25
2022-08-17T18:58:22.390Z,25.18
2022-08-17T19:03:22.411Z,24
2022-08-17T19:08:22.391Z,23.87
2022-08-17T19:13:24.209Z,23.43
2022-08-17T19:18:22.378Z,23.56
2022-08-17T19:23:22.364Z,23.18
2022-08-17T19:28:22.855Z,23.68
2022-08-17T19:33:22.357Z,23.06
2022-08-17T19:38:22.348Z,23.06
2022-08-17T19:43:22.339Z,23.5
2022-08-17T19:48:22.324Z,23.43
2022-08-17T19:53:22.327Z,23.06
2022-08-17T19:58:22.311Z,22.93
2022-08-17T20:03:22.322Z,23.25
2022-08-17T20:08:22.293Z,23.12
2022-08-17T20:13:33.046Z,22.87
2022-08-17T20:18:22.288Z,22.81
2022-08-17T20:23:22.273Z,22.93
2022-08-17T20:28:22.284Z,22.75
2022-08-17T20:33:22.257Z,22.93
2022-08-17T20:38:22.258Z,23
2022-08-17T20:43:22.263Z,22.87
2022-08-17T20:48:37.255Z,22.87
2022-08-17T20:53:22.239Z,22.75
2022-08-17T20:58:22.252Z,22.81
2022-08-17T21:03:22.229Z,22.68
2022-08-17T21:08:22.228Z,22.68
2022-08-17T21:13:22.219Z,22.75
2022-08-17T21:18:22.210Z,22.62
2022-08-17T21:23:22.212Z,22.81
2022-08-17T21:28:22.175Z,23.25
2022-08-17T21:33:22.182Z,23.06
2022-08-17T21:38:22.180Z,22.87
2022-08-17T21:43:22.176Z,23
2022-08-17T21:48:22.162Z,23.06
2022-08-17T21:53:22.157Z,23.06
2022-08-17T21:58:22.150Z,23.37
2022-08-17T22:13:22.165Z,23.25
2022-08-17T22:18:22.125Z,23.5
2022-08-17T22:23:22.128Z,23.18
2022-08-17T22:28:22.121Z,22.75
2022-08-17T22:33:22.090Z,22.81
2022-08-17T22:38:22.088Z,22.75
2022-08-17T22:43:24.264Z,22.62
2022-08-17T22:48:22.082Z,22.68
2022-08-17T22:53:22.095Z,23.12
2022-08-17T22:58:22.062Z,23.12
2022-08-17T23:03:22.180Z,23.06
2022-08-17T23:08:22.050Z,23.5
2022-08-17T23:13:22.059Z,23.87
2022-08-17T23:18:22.044Z,23.81
2022-08-17T23:23:23.764Z,23
2022-08-17T23:28:22.027Z,23.25
2022-08-17T23:33:22.015Z,22.87
2022-08-17T23:38:22.001Z,21.62
2022-08-17T23:43:24.909Z,21.12
2022-08-17T23:48:32.725Z,19.18
2022-08-17T23:53:22.020Z,16.75
2022-08-17T23:58:21.989Z,16.75
